createdAt,value
2023-04-16T00:02:03.463Z,3.30
2023-04-16T00:04:30.553Z,3.55
2023-04-16T00:06:57.628Z,2.55
2023-04-16T00:09:24.532Z,3.00
2023-04-16T00:11:51.589Z,2.90
2023-04-16T00:14:18.710Z,1.92
2023-04-16T00:16:46.022Z,2.42
2023-04-16T00:19:13.289Z,2.60
2023-04-16T00:21:40.251Z,2.47
2023-04-16T00:24:07.308Z,2.40
2023-04-16T00:26:34.420Z,2.63
2023-04-16T00:29:01.368Z,2.47
2023-04-16T00:31:30.370Z,2.75
2023-04-16T00:33:58.601Z,2.42
2023-04-16T00:36:29.729Z,2.67
2023-04-16T00:38:56.979Z,2.45
2023-04-16T00:41:24.183Z,2.50
2023-04-16T00:43:51.577Z,2.00
2023-04-16T00:46:21.820Z,1.90
2023-04-16T00:48:51.057Z,2.55
2023-04-16T00:51:20.431Z,2.13
2023-04-16T00:53:48.013Z,2.20
2023-04-16T00:56:15.242Z,2.63
2023-04-16T00:58:42.175Z,2.40
2023-04-16T01:01:09.084Z,2.55
2023-04-16T01:03:43.411Z,2.30
2023-04-16T01:06:11.366Z,2.13
2023-04-16T01:08:38.770Z,2.72
2023-04-16T01:11:06.458Z,3.10
2023-04-16T01:13:33.858Z,2.30
2023-04-16T01:16:01.408Z,2.33
2023-04-16T01:18:28.374Z,2.75
2023-04-16T01:20:55.355Z,2.13
2023-04-16T01:23:22.620Z,2.33
2023-04-16T01:25:49.689Z,2.20
2023-04-16T01:28:17.011Z,3.17
2023-04-16T01:30:44.234Z,2.28
2023-04-16T01:33:37.294Z,1.80
2023-04-16T01:36:04.495Z,2.80
2023-04-16T01:38:31.345Z,3.30
2023-04-16T01:40:59.840Z,3.05
2023-04-16T01:43:26.748Z,2.17
2023-04-16T01:46:13.625Z,2.20
2023-04-16T01:48:41.113Z,2.53
2023-04-16T01:51:07.988Z,2.28
2023-04-16T01:53:36.957Z,1.92
2023-04-16T01:56:04.521Z,1.98
2023-04-16T01:58:33.223Z,1.67
2023-04-16T02:01:00.755Z,1.77
2023-04-16T02:03:28.218Z,1.67
2023-04-16T02:05:55.190Z,2.28
2023-04-16T02:08:22.421Z,1.75
2023-04-16T02:10:50.845Z,1.92
2023-04-16T02:13:17.854Z,1.83
2023-04-16T02:15:48.103Z,1.95
2023-04-16T02:18:18.834Z,1.90
2023-04-16T02:20:47.487Z,1.90
2023-04-16T02:23:15.296Z,2.00
2023-04-16T02:25:47.991Z,1.75
2023-04-16T02:28:16.913Z,2.40
2023-04-16T02:30:45.931Z,1.77
2023-04-16T02:33:15.027Z,1.98
2023-04-16T02:35:52.199Z,2.40
2023-04-16T02:38:19.500Z,2.58
2023-04-16T02:40:46.353Z,2.03
2023-04-16T02:43:13.288Z,2.80
2023-04-16T02:45:40.330Z,2.10
2023-04-16T02:48:08.762Z,1.73
2023-04-16T02:50:35.753Z,2.03
2023-04-16T02:53:03.457Z,1.70
2023-04-16T02:55:30.440Z,2.80
2023-04-16T02:57:57.373Z,3.13
2023-04-16T03:00:24.336Z,1.90
2023-04-16T03:02:51.534Z,1.92
2023-04-16T03:05:18.716Z,2.45
2023-04-16T03:07:46.845Z,2.13
2023-04-16T03:10:14.985Z,2.65
2023-04-16T03:12:41.929Z,2.05
2023-04-16T03:15:09.536Z,2.70
2023-04-16T03:17:36.608Z,2.30
2023-04-16T03:20:04.193Z,2.10
2023-04-16T03:22:31.464Z,2.05
2023-04-16T03:24:58.314Z,2.60
2023-04-16T03:27:25.373Z,2.00
2023-04-16T03:29:53.279Z,1.75
2023-04-16T03:32:20.221Z,1.80
2023-04-16T03:34:47.157Z,2.05
2023-04-16T03:37:14.236Z,2.20
2023-04-16T03:39:41.529Z,2.58
2023-04-16T03:42:10.914Z,1.98
2023-04-16T03:44:37.798Z,2.10
2023-04-16T03:47:04.717Z,1.60
2023-04-16T03:49:31.613Z,1.60
2023-04-16T03:51:59.472Z,2.00
2023-04-16T03:54:26.923Z,1.98
2023-04-16T03:57:05.761Z,2.10
2023-04-16T03:59:33.448Z,2.38
2023-04-16T04:02:00.874Z,2.20
2023-04-16T04:04:28.139Z,2.28
2023-04-16T04:06:55.016Z,2.08
2023-04-16T04:09:23.061Z,2.10
2023-04-16T04:11:50.851Z,2.08
2023-04-16T04:14:17.965Z,2.38
2023-04-16T04:16:44.947Z,2.30
2023-04-16T04:19:12.007Z,1.80
2023-04-16T04:21:39.013Z,1.60
2023-04-16T04:24:06.240Z,1.98
2023-04-16T04:26:34.014Z,1.95
2023-04-16T04:29:00.905Z,1.77
2023-04-16T04:31:27.836Z,1.67
2023-04-16T04:33:56.046Z,2.05
2023-04-16T04:36:22.878Z,1.80
2023-04-16T04:38:50.479Z,1.58
2023-04-16T04:41:17.809Z,1.77
2023-04-16T04:43:44.752Z,1.75
2023-04-16T04:46:12.443Z,1.83
2023-04-16T04:48:40.802Z,1.70
2023-04-16T04:51:07.816Z,1.85
2023-04-16T04:53:34.889Z,1.70
2023-04-16T04:56:11.805Z,3.15
2023-04-16T04:58:41.527Z,1.90
2023-04-16T05:01:10.471Z,1.90
2023-04-16T05:03:37.540Z,1.80
2023-04-16T05:06:04.697Z,1.52
2023-04-16T05:08:31.588Z,2.22
2023-04-16T05:10:58.495Z,1.98
2023-04-16T05:13:25.496Z,2.10
2023-04-16T05:15:52.611Z,1.52
2023-04-16T05:18:19.559Z,1.55
2023-04-16T05:20:46.373Z,1.30
2023-04-16T05:23:13.320Z,2.05
2023-04-16T05:25:40.224Z,2.28
2023-04-16T05:28:07.144Z,1.88
2023-04-16T05:30:34.108Z,1.83
2023-04-16T05:33:01.086Z,2.05
2023-04-16T05:35:28.059Z,1.92
2023-04-16T05:37:54.970Z,1.88
2023-04-16T05:40:21.991Z,2.20
2023-04-16T05:42:49.371Z,1.75
2023-04-16T05:45:16.269Z,1.83
2023-04-16T05:47:43.433Z,1.90
2023-04-16T05:50:10.832Z,2.05
2023-04-16T05:52:38.171Z,2.78
2023-04-16T05:55:05.869Z,2.20
2023-04-16T05:57:33.733Z,1.67
2023-04-16T06:00:00.791Z,1.65
2023-04-16T06:02:27.881Z,1.85
2023-04-16T06:04:54.736Z,1.70
2023-04-16T06:07:21.666Z,1.70
2023-04-16T06:09:48.495Z,1.83
2023-04-16T06:12:15.458Z,1.67
2023-04-16T06:14:42.313Z,2.38
2023-04-16T06:17:09.262Z,1.70
2023-04-16T06:19:36.283Z,2.17
2023-04-16T06:22:04.675Z,1.50
2023-04-16T06:24:31.511Z,2.28
2023-04-16T06:26:58.424Z,1.80
2023-04-16T06:29:33.658Z,2.30
2023-04-16T06:32:07.937Z,2.30
2023-04-16T06:34:35.074Z,2.53
2023-04-16T06:37:01.982Z,2.20
2023-04-16T06:39:28.809Z,1.83
2023-04-16T06:41:56.078Z,2.20
2023-04-16T06:44:22.976Z,2.33
2023-04-16T06:46:51.123Z,1.80
2023-04-16T06:49:18.099Z,1.92
2023-04-16T06:51:45.329Z,2.08
2023-04-16T06:54:12.214Z,1.65
2023-04-16T06:56:39.237Z,2.25
2023-04-16T06:59:06.216Z,2.17
2023-04-16T07:01:33.463Z,2.08
2023-04-16T07:04:00.905Z,2.05
2023-04-16T07:06:27.916Z,2.30
2023-04-16T07:08:54.809Z,2.03
2023-04-16T07:11:22.532Z,1.92
2023-04-16T07:13:51.118Z,1.55
2023-04-16T07:16:18.342Z,1.70
2023-04-16T07:18:45.219Z,1.90
2023-04-16T07:21:12.155Z,1.77
2023-04-16T07:23:39.026Z,1.65
2023-04-16T07:26:06.142Z,2.03
2023-04-16T07:28:32.976Z,2.83
2023-04-16T07:31:00.404Z,2.30
2023-04-16T07:33:27.505Z,1.77
2023-04-16T07:35:54.469Z,2.10
2023-04-16T07:38:21.328Z,1.70
2023-04-16T07:40:48.283Z,1.73
2023-04-16T07:43:16.417Z,2.15
2023-04-16T07:45:43.384Z,2.13
2023-04-16T07:48:10.356Z,1.90
2023-04-16T07:50:37.570Z,2.22
2023-04-16T07:53:05.902Z,1.70
2023-04-16T07:55:33.119Z,2.00
2023-04-16T07:58:00.103Z,2.28
2023-04-16T08:00:27.070Z,2.38
2023-04-16T08:02:54.122Z,2.03
2023-04-16T08:05:21.323Z,1.80
2023-04-16T08:07:48.227Z,2.03
2023-04-16T08:10:15.707Z,2.20
2023-04-16T08:12:42.610Z,2.00
2023-04-16T08:15:09.902Z,2.10
2023-04-16T08:17:37.805Z,1.77
2023-04-16T08:20:05.849Z,1.80
2023-04-16T08:22:33.737Z,3.22
2023-04-16T08:25:00.693Z,2.28
2023-04-16T08:27:27.500Z,2.05
2023-04-16T08:29:54.457Z,1.90
2023-04-16T08:32:21.545Z,1.85
2023-04-16T08:34:48.606Z,2.35
2023-04-16T08:37:15.483Z,1.90
2023-04-16T08:39:42.476Z,2.50
2023-04-16T08:42:18.449Z,2.72
2023-04-16T08:44:49.680Z,1.88
2023-04-16T08:47:16.912Z,1.77
2023-04-16T08:49:47.520Z,2.85
2023-04-16T08:52:18.497Z,2.25
2023-04-16T08:54:57.363Z,2.72
2023-04-16T08:57:30.522Z,2.25
2023-04-16T08:59:58.256Z,2.10
2023-04-16T09:02:27.056Z,1.80
2023-04-16T09:04:56.515Z,2.15
2023-04-16T09:07:25.782Z,2.10
2023-04-16T09:09:53.796Z,2.03
2023-04-16T09:12:24.337Z,2.22
2023-04-16T09:14:51.422Z,2.50
2023-04-16T09:17:21.470Z,2.15
2023-04-16T09:19:48.632Z,2.00
2023-04-16T09:22:15.530Z,2.60
2023-04-16T09:24:42.521Z,2.15
2023-04-16T09:27:09.533Z,2.13
2023-04-16T09:29:39.015Z,2.20
2023-04-16T09:32:11.222Z,2.10
2023-04-16T09:34:58.508Z,2.00
2023-04-16T09:37:31.775Z,2.10
2023-04-16T09:40:00.882Z,2.00
2023-04-16T09:42:30.047Z,2.63
2023-04-16T09:44:59.925Z,2.55
2023-04-16T09:47:43.599Z,2.22
2023-04-16T09:50:17.773Z,1.77
2023-04-16T09:52:49.509Z,2.30
2023-04-16T09:55:16.643Z,1.98
2023-04-16T09:57:43.520Z,1.98
2023-04-16T10:00:11.490Z,2.25
2023-04-16T10:02:42.708Z,2.30
2023-04-16T10:05:11.098Z,2.08
2023-04-16T10:07:38.020Z,1.70
2023-04-16T10:10:05.437Z,2.03
2023-04-16T10:12:32.869Z,2.40
2023-04-16T10:15:00.226Z,2.25
2023-04-16T10:17:30.089Z,2.78
2023-04-16T10:19:59.025Z,2.33
2023-04-16T10:22:26.570Z,2.50
2023-04-16T10:24:54.479Z,2.40
2023-04-16T10:27:21.942Z,2.35
2023-04-16T10:29:49.523Z,2.25
2023-04-16T10:32:18.607Z,2.50
2023-04-16T10:34:45.897Z,2.30
2023-04-16T10:37:12.748Z,2.13
2023-04-16T10:39:39.704Z,2.13
2023-04-16T10:42:14.268Z,2.30
2023-04-16T10:44:44.432Z,2.47
2023-04-16T10:47:13.572Z,2.17
2023-04-16T10:49:41.423Z,2.72
2023-04-16T10:52:13.433Z,2.33
2023-04-16T10:54:41.406Z,2.10
2023-04-16T10:57:16.424Z,2.17
2023-04-16T10:59:44.540Z,3.08
2023-04-16T11:02:20.137Z,2.75
2023-04-16T11:04:48.953Z,2.38
2023-04-16T11:07:19.642Z,2.20
2023-04-16T11:10:06.798Z,2.40
2023-04-16T11:12:44.767Z,2.78
2023-04-16T11:15:13.741Z,2.60
2023-04-16T11:17:40.818Z,2.33
2023-04-16T11:20:19.059Z,3.13
2023-04-16T11:22:48.355Z,2.85
2023-04-16T11:25:23.958Z,2.70
2023-04-16T11:27:52.459Z,2.90
2023-04-16T11:30:28.662Z,2.45
2023-04-16T11:32:56.160Z,3.03
2023-04-16T11:35:23.235Z,2.67
2023-04-16T11:37:50.196Z,2.80
2023-04-16T11:40:17.059Z,2.67
2023-04-16T11:42:44.659Z,2.40
2023-04-16T11:45:12.597Z,3.08
2023-04-16T11:47:51.769Z,2.90
2023-04-16T11:50:28.703Z,2.60
2023-04-16T11:52:58.083Z,3.00
2023-04-16T11:55:25.026Z,2.60
2023-04-16T11:57:52.650Z,2.80
2023-04-16T12:00:23.961Z,3.00
2023-04-16T12:02:54.335Z,3.10
2023-04-16T12:05:35.016Z,2.97
2023-04-16T12:08:04.108Z,2.65
2023-04-16T12:10:34.875Z,3.65
2023-04-16T12:13:12.848Z,3.20
2023-04-16T12:15:49.797Z,3.00
2023-04-16T12:18:18.500Z,2.47
2023-04-16T12:20:46.224Z,3.30
2023-04-16T12:23:30.580Z,2.15
2023-04-16T12:26:02.482Z,2.65
2023-04-16T12:28:38.439Z,2.47
2023-04-16T12:31:06.466Z,2.85
2023-04-16T12:33:33.575Z,2.33
2023-04-16T12:36:01.787Z,3.70
2023-04-16T12:38:29.257Z,3.05
2023-04-16T12:40:57.642Z,2.65
2023-04-16T12:43:25.181Z,2.60
2023-04-16T12:45:52.226Z,2.97
2023-04-16T12:48:19.107Z,3.33
2023-04-16T12:50:46.282Z,2.55
2023-04-16T12:53:13.137Z,2.60
2023-04-16T12:55:40.070Z,2.58
2023-04-16T12:58:07.479Z,2.33
2023-04-16T13:00:34.386Z,2.80
2023-04-16T13:03:01.429Z,3.00
2023-04-16T13:05:28.524Z,2.72
2023-04-16T13:07:55.407Z,2.67
2023-04-16T13:10:23.482Z,2.67
2023-04-16T13:12:50.465Z,2.92
2023-04-16T13:15:17.401Z,2.67
2023-04-16T13:17:44.296Z,2.63
2023-04-16T13:20:11.403Z,2.40
2023-04-16T13:22:38.974Z,3.03
2023-04-16T13:25:06.535Z,3.10
2023-04-16T13:27:33.392Z,2.20
2023-04-16T13:30:00.417Z,2.50
2023-04-16T13:32:27.341Z,2.10
2023-04-16T13:34:54.371Z,2.65
2023-04-16T13:37:21.183Z,2.13
2023-04-16T13:39:48.050Z,2.47
2023-04-16T13:42:15.067Z,2.83
2023-04-16T13:44:41.962Z,2.15
2023-04-16T13:47:09.107Z,2.60
2023-04-16T13:49:36.522Z,2.67
2023-04-16T13:52:03.785Z,2.30
2023-04-16T13:54:30.946Z,2.00
2023-04-16T13:56:57.845Z,3.20
2023-04-16T13:59:24.917Z,3.35
2023-04-16T14:01:51.929Z,2.40
2023-04-16T14:04:19.044Z,2.30
2023-04-16T14:06:45.969Z,2.22
2023-04-16T14:09:13.134Z,2.20
2023-04-16T14:11:40.423Z,2.67
2023-04-16T14:14:07.418Z,3.38
2023-04-16T14:16:34.922Z,2.50
2023-04-16T14:19:01.930Z,2.90
2023-04-16T14:21:28.857Z,2.10
2023-04-16T14:23:55.822Z,2.95
2023-04-16T14:26:23.268Z,2.30
2023-04-16T14:28:51.392Z,2.60
2023-04-16T14:31:19.872Z,2.50
2023-04-16T14:33:47.183Z,2.10
2023-04-16T14:36:14.293Z,2.05
2023-04-16T14:38:43.232Z,2.00
2023-04-16T14:41:12.413Z,2.97
2023-04-16T14:43:41.239Z,2.00
2023-04-16T14:46:08.257Z,2.28
2023-04-16T14:48:35.303Z,2.92
2023-04-16T14:51:02.266Z,2.22
2023-04-16T14:53:29.349Z,2.35
2023-04-16T14:55:59.149Z,2.75
2023-04-16T14:58:26.552Z,2.47
2023-04-16T15:00:53.664Z,2.17
2023-04-16T15:03:21.276Z,2.20
2023-04-16T15:05:54.768Z,2.42
2023-04-16T15:08:22.995Z,2.55
2023-04-16T15:10:50.546Z,2.42
2023-04-16T15:13:17.686Z,2.42
2023-04-16T15:15:44.586Z,1.70
2023-04-16T15:18:11.588Z,2.00
2023-04-16T15:20:38.768Z,1.92
2023-04-16T15:23:05.907Z,2.00
2023-04-16T15:25:32.831Z,2.00
2023-04-16T15:27:59.998Z,1.90
2023-04-16T15:30:26.895Z,2.20
2023-04-16T15:32:55.605Z,1.88
2023-04-16T15:35:22.510Z,2.38
2023-04-16T15:37:50.673Z,2.00
2023-04-16T15:40:18.856Z,1.98
2023-04-16T15:42:45.969Z,2.00
2023-04-16T15:45:12.855Z,1.85
2023-04-16T15:47:41.830Z,2.50
2023-04-16T15:50:09.605Z,2.10
2023-04-16T15:52:38.730Z,2.17
2023-04-16T15:55:06.249Z,2.25
2023-04-16T15:57:33.102Z,2.28
2023-04-16T16:00:06.981Z,2.08
2023-04-16T16:02:34.788Z,2.20
2023-04-16T16:05:02.189Z,2.10
2023-04-16T16:07:29.214Z,2.08
2023-04-16T16:09:56.306Z,2.75
2023-04-16T16:12:23.613Z,2.00
2023-04-16T16:14:50.914Z,2.00
2023-04-16T16:17:19.151Z,2.53
2023-04-16T16:19:46.631Z,2.20
2023-04-16T16:22:13.983Z,1.98
2023-04-16T16:24:40.808Z,2.30
2023-04-16T16:27:07.731Z,2.08
2023-04-16T16:29:34.570Z,2.63
2023-04-16T16:32:01.611Z,2.22
2023-04-16T16:34:28.634Z,2.50
2023-04-16T16:36:55.599Z,2.25
2023-04-16T16:39:24.508Z,1.95
2023-04-16T16:41:54.657Z,1.88
2023-04-16T16:44:21.960Z,2.13
2023-04-16T16:46:49.142Z,1.92
2023-04-16T16:49:16.733Z,2.08
2023-04-16T16:51:47.590Z,2.20
2023-04-16T16:54:14.891Z,2.00
2023-04-16T16:56:42.012Z,2.55
2023-04-16T16:59:09.254Z,1.98
2023-04-16T17:01:36.393Z,2.22
2023-04-16T17:04:04.289Z,2.70
2023-04-16T17:06:31.970Z,2.42
2023-04-16T17:08:58.931Z,2.15
2023-04-16T17:11:27.212Z,2.47
2023-04-16T17:13:54.481Z,2.30
2023-04-16T17:16:21.381Z,2.00
2023-04-16T17:18:48.375Z,2.17
2023-04-16T17:21:16.571Z,2.47
2023-04-16T17:23:43.769Z,2.50
2023-04-16T17:26:10.972Z,2.15
2023-04-16T17:28:37.989Z,2.20
2023-04-16T17:31:08.347Z,2.60
2023-04-16T17:33:35.650Z,3.65
2023-04-16T17:36:02.505Z,2.30
2023-04-16T17:38:29.494Z,2.50
2023-04-16T17:40:57.133Z,2.10
2023-04-16T17:43:24.254Z,2.83
2023-04-16T17:45:51.208Z,2.22
2023-04-16T17:48:18.256Z,2.58
2023-04-16T17:50:45.139Z,2.78
2023-04-16T17:53:12.315Z,2.53
2023-04-16T17:55:39.275Z,2.00
2023-04-16T17:58:06.281Z,2.75
2023-04-16T18:00:33.421Z,2.60
2023-04-16T18:03:00.836Z,2.25
2023-04-16T18:05:27.721Z,2.22
2023-04-16T18:07:55.653Z,2.53
2023-04-16T18:10:22.718Z,2.67
2023-04-16T18:12:49.738Z,2.50
2023-04-16T18:15:16.699Z,2.60
2023-04-16T18:17:43.707Z,2.28
2023-04-16T18:20:12.582Z,2.58
2023-04-16T18:22:39.533Z,2.17
2023-04-16T18:25:07.140Z,2.58
2023-04-16T18:27:34.365Z,1.90
2023-04-16T18:30:01.345Z,2.33
2023-04-16T18:32:31.063Z,2.10
2023-04-16T18:34:58.347Z,2.33
2023-04-16T18:37:25.214Z,2.88
2023-04-16T18:39:52.452Z,2.28
2023-04-16T18:42:19.275Z,2.42
2023-04-16T18:44:52.868Z,2.13
2023-04-16T18:47:20.194Z,2.08
2023-04-16T18:49:47.141Z,2.40
2023-04-16T18:52:14.146Z,2.40
2023-04-16T18:54:40.994Z,2.35
2023-04-16T18:57:07.923Z,2.45
2023-04-16T18:59:34.788Z,2.80
2023-04-16T19:02:01.873Z,2.45
2023-04-16T19:04:28.746Z,2.75
2023-04-16T19:06:55.928Z,2.92
2023-04-16T19:09:24.523Z,2.63
2023-04-16T19:11:51.574Z,2.85
2023-04-16T19:14:18.618Z,2.85
2023-04-16T19:16:45.599Z,2.40
2023-04-16T19:19:12.770Z,2.35
2023-04-16T19:21:39.781Z,3.00
2023-04-16T19:24:06.987Z,3.03
2023-04-16T19:26:33.940Z,2.67
2023-04-16T19:29:00.878Z,2.42
2023-04-16T19:31:29.594Z,2.47
2023-04-16T19:33:56.597Z,2.85
2023-04-16T19:36:23.556Z,2.78
2023-04-16T19:38:50.627Z,2.63
2023-04-16T19:41:17.675Z,3.00
2023-04-16T19:43:44.838Z,2.50
2023-04-16T19:46:11.840Z,2.45
2023-04-16T19:48:38.751Z,2.80
2023-04-16T19:51:06.050Z,2.65
2023-04-16T19:53:34.147Z,2.20
2023-04-16T19:56:01.123Z,2.63
2023-04-16T19:58:28.045Z,3.35
2023-04-16T20:00:55.782Z,2.60
2023-04-16T20:03:22.736Z,2.78
2023-04-16T20:05:49.997Z,2.75
2023-04-16T20:08:16.842Z,2.72
2023-04-16T20:10:43.910Z,2.90
2023-04-16T20:13:12.189Z,3.78
2023-04-16T20:15:39.137Z,2.88
2023-04-16T20:18:08.505Z,2.30
2023-04-16T20:20:37.842Z,2.75
2023-04-16T20:23:05.309Z,2.70
2023-04-16T20:25:32.280Z,2.80
2023-04-16T20:27:59.313Z,2.70
2023-04-16T20:30:29.289Z,2.88
2023-04-16T20:32:56.529Z,2.55
2023-04-16T20:35:23.853Z,2.70
2023-04-16T20:37:50.745Z,2.70
2023-04-16T20:40:17.664Z,2.67
2023-04-16T20:42:47.621Z,3.00
2023-04-16T20:45:14.440Z,2.88
2023-04-16T20:47:43.457Z,2.65
2023-04-16T20:50:11.236Z,2.75
2023-04-16T20:52:38.336Z,2.90
2023-04-16T20:55:05.806Z,2.72
2023-04-16T20:57:32.709Z,3.20
2023-04-16T20:59:59.636Z,3.78
2023-04-16T21:02:28.189Z,3.20
2023-04-16T21:04:55.698Z,3.15
2023-04-16T21:07:22.610Z,3.22
2023-04-16T21:09:49.450Z,3.08
2023-04-16T21:12:16.639Z,2.90
2023-04-16T21:14:43.491Z,2.80
2023-04-16T21:17:10.370Z,2.90
2023-04-16T21:19:37.211Z,2.92
2023-04-16T21:22:04.431Z,2.83
2023-04-16T21:24:33.180Z,3.25
2023-04-16T21:27:00.195Z,2.60
2023-04-16T21:29:27.191Z,2.65
2023-04-16T21:31:54.702Z,2.95
2023-04-16T21:34:21.656Z,2.60
2023-04-16T21:36:48.517Z,2.97
2023-04-16T21:39:17.487Z,3.15
2023-04-16T21:41:44.442Z,3.00
2023-04-16T21:44:11.304Z,2.50
2023-04-16T21:46:38.237Z,2.58
2023-04-16T21:49:05.123Z,2.67
2023-04-16T21:51:32.101Z,2.50
2023-04-16T21:53:58.943Z,2.20
2023-04-16T21:56:26.074Z,2.92
2023-04-16T21:58:52.894Z,2.25
2023-04-16T22:01:19.879Z,2.53
2023-04-16T22:03:50.583Z,2.95
2023-04-16T22:06:18.246Z,2.80
2023-04-16T22:08:45.108Z,2.88
2023-04-16T22:11:12.245Z,3.45
2023-04-16T22:13:42.145Z,3.28
2023-04-16T22:16:11.533Z,3.90
2023-04-16T22:18:38.827Z,3.40
2023-04-16T22:21:05.988Z,3.58
2023-04-16T22:23:32.867Z,4.22
2023-04-16T22:25:59.767Z,3.03
2023-04-16T22:28:27.221Z,3.47
2023-04-16T22:30:54.157Z,4.28
2023-04-16T22:33:21.269Z,4.20
2023-04-16T22:35:48.136Z,3.83
2023-04-16T22:38:15.018Z,4.82
2023-04-16T22:40:41.992Z,4.90
2023-04-16T22:43:08.804Z,4.63
2023-04-16T22:45:35.901Z,3.78
2023-04-16T22:48:02.934Z,4.28
2023-04-16T22:50:31.370Z,3.95
2023-04-16T22:52:58.372Z,4.90
2023-04-16T22:55:25.578Z,5.28
2023-04-16T22:57:52.502Z,5.03
2023-04-16T23:00:19.566Z,4.93
2023-04-16T23:02:46.710Z,5.30
2023-04-16T23:05:13.740Z,5.32
2023-04-16T23:07:40.576Z,4.88
2023-04-16T23:10:08.754Z,5.63
2023-04-16T23:12:38.738Z,5.07
2023-04-16T23:15:06.965Z,4.78
2023-04-16T23:17:35.110Z,5.50
2023-04-16T23:20:02.993Z,5.10
2023-04-16T23:22:29.911Z,5.28
2023-04-16T23:24:57.239Z,5.30
2023-04-16T23:27:24.072Z,5.50
2023-04-16T23:29:51.129Z,6.70
2023-04-16T23:32:18.066Z,5.93
2023-04-16T23:34:45.019Z,6.43
2023-04-16T23:37:11.935Z,6.97
2023-04-16T23:39:39.061Z,6.32
2023-04-16T23:42:06.101Z,6.03
2023-04-16T23:44:33.110Z,6.95
2023-04-16T23:47:00.114Z,6.72
2023-04-16T23:49:27.096Z,7.00
2023-04-16T23:51:54.016Z,6.65
2023-04-16T23:54:21.435Z,6.82
2023-04-16T23:56:48.410Z,7.00
2023-04-16T23:59:15.451Z,8.02
